sensor_id;sensor_type;location;lat;lon;timestamp;temperature;humidity
23259;DHT22;11798;51.528;7.240;2023-05-10T00:00:16;13.60;99.90
23259;DHT22;11798;51.528;7.240;2023-05-10T00:02:42;13.60;99.90
23259;DHT22;11798;51.528;7.240;2023-05-10T00:05:08;13.50;99.90
23259;DHT22;11798;51.528;7.240;2023-05-10T00:07:33;13.60;99.90
23259;DHT22;11798;51.528;7.240;2023-05-10T00:09:59;13.60;99.90
23259;DHT22;11798;51.528;7.240;2023-05-10T00:12:25;13.50;99.90
23259;DHT22;11798;51.528;7.240;2023-05-10T00:14:50;13.60;99.90
23259;DHT22;11798;51.528;7.240;2023-05-10T00:17:16;13.60;99.90
23259;DHT22;11798;51.528;7.240;2023-05-10T00:19:41;13.50;99.90
23259;DHT22;11798;51.528;7.240;2023-05-10T00:22:07;13.50;99.90
23259;DHT22;11798;51.528;7.240;2023-05-10T00:24:32;13.60;99.90
23259;DHT22;11798;51.528;7.240;2023-05-10T00:26:58;13.60;99.90
23259;DHT22;11798;51.528;7.240;2023-05-10T00:29:24;13.50;99.90
23259;DHT22;11798;51.528;7.240;2023-05-10T00:31:49;13.50;99.90
23259;DHT22;11798;51.528;7.240;2023-05-10T00:34:15;13.50;99.90
23259;DHT22;11798;51.528;7.240;2023-05-10T00:36:40;13.50;99.90
23259;DHT22;11798;51.528;7.240;2023-05-10T00:39:06;13.50;99.90
23259;DHT22;11798;51.528;7.240;2023-05-10T00:41:33;13.50;99.90
23259;DHT22;11798;51.528;7.240;2023-05-10T00:43:58;13.50;99.90
23259;DHT22;11798;51.528;7.240;2023-05-10T00:46:25;13.50;99.90
23259;DHT22;11798;51.528;7.240;2023-05-10T00:48:51;13.50;99.90
23259;DHT22;11798;51.528;7.240;2023-05-10T00:51:17;13.40;99.90
23259;DHT22;11798;51.528;7.240;2023-05-10T00:53:47;13.50;99.90
23259;DHT22;11798;51.528;7.240;2023-05-10T00:56:13;13.40;99.90
23259;DHT22;11798;51.528;7.240;2023-05-10T00:58:39;13.40;99.90
23259;DHT22;11798;51.528;7.240;2023-05-10T01:01:05;13.40;99.90
23259;DHT22;11798;51.528;7.240;2023-05-10T01:03:32;13.50;99.90
23259;DHT22;11798;51.528;7.240;2023-05-10T01:05:58;13.50;99.90
23259;DHT22;11798;51.528;7.240;2023-05-10T01:08:24;13.50;99.90
23259;DHT22;11798;51.528;7.240;2023-05-10T01:10:50;13.50;99.90
23259;DHT22;11798;51.528;7.240;2023-05-10T01:15:54;13.50;99.90
23259;DHT22;11798;51.528;7.240;2023-05-10T01:18:21;13.60;99.90
23259;DHT22;11798;51.528;7.240;2023-05-10T01:20:50;13.60;99.90
23259;DHT22;11798;51.528;7.240;2023-05-10T01:23:37;13.50;99.90
23259;DHT22;11798;51.528;7.240;2023-05-10T01:34:27;13.30;99.90
23259;DHT22;11798;51.528;7.240;2023-05-10T01:37:25;13.30;99.90
23259;DHT22;11798;51.528;7.240;2023-05-10T01:40:00;13.20;99.90
23259;DHT22;11798;51.528;7.240;2023-05-10T01:42:29;13.20;99.90
23259;DHT22;11798;51.528;7.240;2023-05-10T01:45:05;13.20;99.90
23259;DHT22;11798;51.528;7.240;2023-05-10T01:47:38;13.20;99.90
23259;DHT22;11798;51.528;7.240;2023-05-10T01:50:10;13.20;99.90
23259;DHT22;11798;51.528;7.240;2023-05-10T01:52:42;13.20;99.90
23259;DHT22;11798;51.528;7.240;2023-05-10T01:55:13;13.10;99.90
23259;DHT22;11798;51.528;7.240;2023-05-10T01:57:40;13.20;99.90
23259;DHT22;11798;51.528;7.240;2023-05-10T02:00:08;13.20;99.90
23259;DHT22;11798;51.528;7.240;2023-05-10T02:02:37;13.20;99.90
23259;DHT22;11798;51.528;7.240;2023-05-10T02:05:05;13.20;99.90
23259;DHT22;11798;51.528;7.240;2023-05-10T02:07:34;13.30;99.90
23259;DHT22;11798;51.528;7.240;2023-05-10T02:10:02;13.20;99.90
23259;DHT22;11798;51.528;7.240;2023-05-10T02:12:29;13.20;99.90
23259;DHT22;11798;51.528;7.240;2023-05-10T02:14:57;13.30;99.90
23259;DHT22;11798;51.528;7.240;2023-05-10T02:17:25;13.30;99.90
23259;DHT22;11798;51.528;7.240;2023-05-10T02:19:51;13.30;99.90
23259;DHT22;11798;51.528;7.240;2023-05-10T02:22:19;13.30;99.90
23259;DHT22;11798;51.528;7.240;2023-05-10T02:24:46;13.30;99.90
23259;DHT22;11798;51.528;7.240;2023-05-10T02:27:12;13.30;99.90
23259;DHT22;11798;51.528;7.240;2023-05-10T02:29:39;13.40;99.90
23259;DHT22;11798;51.528;7.240;2023-05-10T02:32:06;13.40;99.90
23259;DHT22;11798;51.528;7.240;2023-05-10T02:34:32;13.40;99.90
23259;DHT22;11798;51.528;7.240;2023-05-10T02:36:58;13.40;99.90
23259;DHT22;11798;51.528;7.240;2023-05-10T02:39:26;13.30;99.90
23259;DHT22;11798;51.528;7.240;2023-05-10T02:41:53;13.30;99.90
23259;DHT22;11798;51.528;7.240;2023-05-10T02:44:22;13.20;99.90
23259;DHT22;11798;51.528;7.240;2023-05-10T02:46:49;13.10;99.90
23259;DHT22;11798;51.528;7.240;2023-05-10T02:49:15;13.10;99.90
23259;DHT22;11798;51.528;7.240;2023-05-10T02:51:44;13.00;99.90
23259;DHT22;11798;51.528;7.240;2023-05-10T02:54:15;13.10;99.90
23259;DHT22;11798;51.528;7.240;2023-05-10T02:56:49;13.10;99.90
23259;DHT22;11798;51.528;7.240;2023-05-10T02:59:15;13.00;99.90
23259;DHT22;11798;51.528;7.240;2023-05-10T03:01:41;13.10;99.90
23259;DHT22;11798;51.528;7.240;2023-05-10T03:04:07;13.00;99.90
23259;DHT22;11798;51.528;7.240;2023-05-10T03:06:33;13.10;99.90
23259;DHT22;11798;51.528;7.240;2023-05-10T03:08:59;13.00;99.90
23259;DHT22;11798;51.528;7.240;2023-05-10T03:16:46;13.10;99.90
23259;DHT22;11798;51.528;7.240;2023-05-10T03:19:29;13.20;99.90
23259;DHT22;11798;51.528;7.240;2023-05-10T03:21:59;13.20;99.90
23259;DHT22;11798;51.528;7.240;2023-05-10T03:24:27;13.20;99.90
23259;DHT22;11798;51.528;7.240;2023-05-10T03:26:55;13.20;99.90
23259;DHT22;11798;51.528;7.240;2023-05-10T03:29:22;13.10;99.90
23259;DHT22;11798;51.528;7.240;2023-05-10T03:31:50;13.10;99.90
23259;DHT22;11798;51.528;7.240;2023-05-10T03:34:16;13.00;99.90
23259;DHT22;11798;51.528;7.240;2023-05-10T03:36:42;13.10;99.90
23259;DHT22;11798;51.528;7.240;2023-05-10T03:39:08;13.20;99.90
23259;DHT22;11798;51.528;7.240;2023-05-10T03:41:34;13.10;99.90
23259;DHT22;11798;51.528;7.240;2023-05-10T03:43:59;13.10;99.90
23259;DHT22;11798;51.528;7.240;2023-05-10T03:46:25;13.20;99.90
23259;DHT22;11798;51.528;7.240;2023-05-10T03:48:51;13.20;99.90
23259;DHT22;11798;51.528;7.240;2023-05-10T03:51:16;13.20;99.90
23259;DHT22;11798;51.528;7.240;2023-05-10T03:53:42;13.20;99.90
23259;DHT22;11798;51.528;7.240;2023-05-10T03:56:07;13.30;99.90
23259;DHT22;11798;51.528;7.240;2023-05-10T03:58:33;13.20;99.90
23259;DHT22;11798;51.528;7.240;2023-05-10T04:00:58;13.20;99.90
23259;DHT22;11798;51.528;7.240;2023-05-10T04:03:24;13.20;99.90
23259;DHT22;11798;51.528;7.240;2023-05-10T04:05:59;13.30;99.90
23259;DHT22;11798;51.528;7.240;2023-05-10T04:08:25;13.30;99.90
23259;DHT22;11798;51.528;7.240;2023-05-10T04:10:51;13.30;99.90
23259;DHT22;11798;51.528;7.240;2023-05-10T04:13:16;13.20;99.90
23259;DHT22;11798;51.528;7.240;2023-05-10T04:15:42;13.30;99.90
23259;DHT22;11798;51.528;7.240;2023-05-10T04:18:08;13.30;99.90
23259;DHT22;11798;51.528;7.240;2023-05-10T04:20:34;13.30;99.90
23259;DHT22;11798;51.528;7.240;2023-05-10T04:22:59;13.40;99.90
23259;DHT22;11798;51.528;7.240;2023-05-10T04:25:25;13.30;99.90
23259;DHT22;11798;51.528;7.240;2023-05-10T04:27:51;13.30;99.90
23259;DHT22;11798;51.528;7.240;2023-05-10T04:30:17;13.30;99.90
23259;DHT22;11798;51.528;7.240;2023-05-10T04:32:43;13.30;99.90
23259;DHT22;11798;51.528;7.240;2023-05-10T04:35:08;13.30;99.90
23259;DHT22;11798;51.528;7.240;2023-05-10T04:37:36;13.20;99.90
23259;DHT22;11798;51.528;7.240;2023-05-10T04:40:02;13.30;99.90
23259;DHT22;11798;51.528;7.240;2023-05-10T04:42:28;13.20;99.90
23259;DHT22;11798;51.528;7.240;2023-05-10T04:44:54;13.20;99.90
23259;DHT22;11798;51.528;7.240;2023-05-10T04:47:20;13.30;99.90
23259;DHT22;11798;51.528;7.240;2023-05-10T04:49:45;13.20;99.90
23259;DHT22;11798;51.528;7.240;2023-05-10T04:52:11;13.20;99.90
23259;DHT22;11798;51.528;7.240;2023-05-10T04:54:36;13.20;99.90
23259;DHT22;11798;51.528;7.240;2023-05-10T04:57:02;13.30;99.90
23259;DHT22;11798;51.528;7.240;2023-05-10T04:59:28;13.30;99.90
23259;DHT22;11798;51.528;7.240;2023-05-10T05:01:53;13.30;99.90
23259;DHT22;11798;51.528;7.240;2023-05-10T05:04:19;13.20;99.90
23259;DHT22;11798;51.528;7.240;2023-05-10T05:06:44;13.20;99.90
23259;DHT22;11798;51.528;7.240;2023-05-10T05:09:10;13.20;99.90
23259;DHT22;11798;51.528;7.240;2023-05-10T05:11:35;13.20;99.90
23259;DHT22;11798;51.528;7.240;2023-05-10T05:14:01;13.20;99.90
23259;DHT22;11798;51.528;7.240;2023-05-10T05:16:27;13.20;99.90
23259;DHT22;11798;51.528;7.240;2023-05-10T05:18:52;13.20;99.90
23259;DHT22;11798;51.528;7.240;2023-05-10T05:21:19;13.20;99.90
23259;DHT22;11798;51.528;7.240;2023-05-10T05:23:46;13.20;99.90
23259;DHT22;11798;51.528;7.240;2023-05-10T05:26:11;13.20;99.90
23259;DHT22;11798;51.528;7.240;2023-05-10T05:28:38;13.30;99.90
23259;DHT22;11798;51.528;7.240;2023-05-10T05:31:07;13.30;99.90
23259;DHT22;11798;51.528;7.240;2023-05-10T05:33:33;13.30;99.90
23259;DHT22;11798;51.528;7.240;2023-05-10T05:36:03;13.30;99.90
23259;DHT22;11798;51.528;7.240;2023-05-10T05:38:29;13.40;99.90
23259;DHT22;11798;51.528;7.240;2023-05-10T05:40:55;13.40;99.90
23259;DHT22;11798;51.528;7.240;2023-05-10T05:43:20;13.50;99.90
23259;DHT22;11798;51.528;7.240;2023-05-10T05:45:46;13.50;99.90
23259;DHT22;11798;51.528;7.240;2023-05-10T05:48:11;13.50;99.90
23259;DHT22;11798;51.528;7.240;2023-05-10T05:50:37;13.50;99.90
23259;DHT22;11798;51.528;7.240;2023-05-10T05:53:02;13.50;99.90
23259;DHT22;11798;51.528;7.240;2023-05-10T05:55:28;13.50;99.90
23259;DHT22;11798;51.528;7.240;2023-05-10T05:57:54;13.50;99.90
23259;DHT22;11798;51.528;7.240;2023-05-10T06:00:20;13.50;99.90
23259;DHT22;11798;51.528;7.240;2023-05-10T06:02:46;13.40;99.90
23259;DHT22;11798;51.528;7.240;2023-05-10T06:05:12;13.60;99.90
23259;DHT22;11798;51.528;7.240;2023-05-10T06:07:39;13.60;99.90
23259;DHT22;11798;51.528;7.240;2023-05-10T06:10:08;13.60;99.90
23259;DHT22;11798;51.528;7.240;2023-05-10T06:12:34;13.60;99.90
23259;DHT22;11798;51.528;7.240;2023-05-10T06:14:59;13.60;99.90
23259;DHT22;11798;51.528;7.240;2023-05-10T06:17:25;13.50;99.90
23259;DHT22;11798;51.528;7.240;2023-05-10T06:19:50;13.50;99.90
23259;DHT22;11798;51.528;7.240;2023-05-10T06:22:16;13.60;99.90
23259;DHT22;11798;51.528;7.240;2023-05-10T06:24:41;13.60;99.90
23259;DHT22;11798;51.528;7.240;2023-05-10T06:27:07;13.60;99.90
23259;DHT22;11798;51.528;7.240;2023-05-10T06:29:33;13.60;99.90
23259;DHT22;11798;51.528;7.240;2023-05-10T06:31:58;13.60;99.90
23259;DHT22;11798;51.528;7.240;2023-05-10T06:34:24;13.70;99.90
23259;DHT22;11798;51.528;7.240;2023-05-10T06:36:50;13.70;99.90
23259;DHT22;11798;51.528;7.240;2023-05-10T06:39:15;13.80;99.90
23259;DHT22;11798;51.528;7.240;2023-05-10T06:41:41;13.80;99.90
23259;DHT22;11798;51.528;7.240;2023-05-10T06:44:07;13.90;99.90
23259;DHT22;11798;51.528;7.240;2023-05-10T06:46:33;13.80;99.90
23259;DHT22;11798;51.528;7.240;2023-05-10T06:48:59;13.90;99.90
23259;DHT22;11798;51.528;7.240;2023-05-10T06:51:25;13.90;99.90
23259;DHT22;11798;51.528;7.240;2023-05-10T06:53:51;13.80;99.90
23259;DHT22;11798;51.528;7.240;2023-05-10T06:56:16;13.80;99.90
23259;DHT22;11798;51.528;7.240;2023-05-10T06:58:42;14.00;99.90
23259;DHT22;11798;51.528;7.240;2023-05-10T07:01:08;14.00;99.90
23259;DHT22;11798;51.528;7.240;2023-05-10T07:03:33;14.20;99.90
23259;DHT22;11798;51.528;7.240;2023-05-10T07:06:03;14.10;99.90
23259;DHT22;11798;51.528;7.240;2023-05-10T07:08:33;14.00;99.90
23259;DHT22;11798;51.528;7.240;2023-05-10T07:13:27;14.10;99.90
23259;DHT22;11798;51.528;7.240;2023-05-10T07:15:52;14.20;99.90
23259;DHT22;11798;51.528;7.240;2023-05-10T07:18:18;14.20;99.90
23259;DHT22;11798;51.528;7.240;2023-05-10T07:20:44;14.20;99.90
23259;DHT22;11798;51.528;7.240;2023-05-10T07:23:09;14.40;99.90
23259;DHT22;11798;51.528;7.240;2023-05-10T07:25:35;14.30;99.90
23259;DHT22;11798;51.528;7.240;2023-05-10T07:28:00;14.30;99.90
23259;DHT22;11798;51.528;7.240;2023-05-10T07:30:26;14.60;99.90
23259;DHT22;11798;51.528;7.240;2023-05-10T07:32:52;14.70;99.90
23259;DHT22;11798;51.528;7.240;2023-05-10T07:35:17;14.80;99.90
23259;DHT22;11798;51.528;7.240;2023-05-10T07:37:43;14.80;99.90
23259;DHT22;11798;51.528;7.240;2023-05-10T07:40:09;14.90;99.90
23259;DHT22;11798;51.528;7.240;2023-05-10T07:42:34;15.00;99.90
23259;DHT22;11798;51.528;7.240;2023-05-10T07:45:00;15.00;99.90
23259;DHT22;11798;51.528;7.240;2023-05-10T07:47:25;15.10;99.90
23259;DHT22;11798;51.528;7.240;2023-05-10T07:49:51;15.20;99.90
23259;DHT22;11798;51.528;7.240;2023-05-10T07:52:16;15.20;99.90
23259;DHT22;11798;51.528;7.240;2023-05-10T07:54:42;15.30;99.90
23259;DHT22;11798;51.528;7.240;2023-05-10T07:57:08;15.30;99.90
23259;DHT22;11798;51.528;7.240;2023-05-10T07:59:33;15.30;99.90
23259;DHT22;11798;51.528;7.240;2023-05-10T08:01:59;15.60;99.90
23259;DHT22;11798;51.528;7.240;2023-05-10T08:04:24;15.70;99.90
23259;DHT22;11798;51.528;7.240;2023-05-10T08:06:50;15.60;99.90
23259;DHT22;11798;51.528;7.240;2023-05-10T08:09:16;15.70;99.90
23259;DHT22;11798;51.528;7.240;2023-05-10T08:11:41;15.50;99.90
23259;DHT22;11798;51.528;7.240;2023-05-10T08:14:07;15.60;99.90
23259;DHT22;11798;51.528;7.240;2023-05-10T08:16:32;15.70;99.90
23259;DHT22;11798;51.528;7.240;2023-05-10T08:18:58;15.60;99.90
23259;DHT22;11798;51.528;7.240;2023-05-10T08:21:23;15.40;99.90
23259;DHT22;11798;51.528;7.240;2023-05-10T08:23:49;15.40;99.90
23259;DHT22;11798;51.528;7.240;2023-05-10T08:26:15;15.50;99.90
23259;DHT22;11798;51.528;7.240;2023-05-10T08:28:40;15.40;99.90
23259;DHT22;11798;51.528;7.240;2023-05-10T08:31:06;15.40;99.90
23259;DHT22;11798;51.528;7.240;2023-05-10T08:33:31;15.50;99.90
23259;DHT22;11798;51.528;7.240;2023-05-10T08:35:57;15.40;99.90
23259;DHT22;11798;51.528;7.240;2023-05-10T08:38:22;15.50;99.90
23259;DHT22;11798;51.528;7.240;2023-05-10T08:40:49;15.70;99.90
23259;DHT22;11798;51.528;7.240;2023-05-10T08:43:16;15.50;99.90
23259;DHT22;11798;51.528;7.240;2023-05-10T08:45:43;15.40;99.90
23259;DHT22;11798;51.528;7.240;2023-05-10T08:48:10;15.50;99.90
23259;DHT22;11798;51.528;7.240;2023-05-10T08:50:41;15.50;99.90
23259;DHT22;11798;51.528;7.240;2023-05-10T08:53:11;15.50;99.90
23259;DHT22;11798;51.528;7.240;2023-05-10T08:55:37;15.50;99.90
23259;DHT22;11798;51.528;7.240;2023-05-10T08:58:04;15.50;99.90
23259;DHT22;11798;51.528;7.240;2023-05-10T09:00:31;15.50;99.90
23259;DHT22;11798;51.528;7.240;2023-05-10T09:02:58;15.60;99.90
23259;DHT22;11798;51.528;7.240;2023-05-10T09:05:24;15.70;99.90
23259;DHT22;11798;51.528;7.240;2023-05-10T09:07:49;15.60;99.90
23259;DHT22;11798;51.528;7.240;2023-05-10T09:10:16;15.60;99.90
23259;DHT22;11798;51.528;7.240;2023-05-10T09:12:42;15.70;99.90
23259;DHT22;11798;51.528;7.240;2023-05-10T09:15:09;15.70;99.90
23259;DHT22;11798;51.528;7.240;2023-05-10T09:17:36;15.50;99.90
23259;DHT22;11798;51.528;7.240;2023-05-10T09:20:04;15.60;99.90
23259;DHT22;11798;51.528;7.240;2023-05-10T09:22:30;15.70;99.90
23259;DHT22;11798;51.528;7.240;2023-05-10T09:25:09;15.60;99.90
23259;DHT22;11798;51.528;7.240;2023-05-10T09:27:37;15.80;99.90
23259;DHT22;11798;51.528;7.240;2023-05-10T09:30:03;15.70;99.90
23259;DHT22;11798;51.528;7.240;2023-05-10T09:32:44;15.60;99.90
23259;DHT22;11798;51.528;7.240;2023-05-10T09:35:12;15.80;99.90
23259;DHT22;11798;51.528;7.240;2023-05-10T09:37:45;16.00;99.90
23259;DHT22;11798;51.528;7.240;2023-05-10T09:40:24;16.10;99.90
23259;DHT22;11798;51.528;7.240;2023-05-10T09:42:56;16.30;99.90
23259;DHT22;11798;51.528;7.240;2023-05-10T09:45:27;16.20;99.90
23259;DHT22;11798;51.528;7.240;2023-05-10T09:47:53;16.20;99.90
23259;DHT22;11798;51.528;7.240;2023-05-10T09:50:20;16.20;99.90
23259;DHT22;11798;51.528;7.240;2023-05-10T09:52:56;16.30;99.90
23259;DHT22;11798;51.528;7.240;2023-05-10T09:55:39;16.40;99.90
23259;DHT22;11798;51.528;7.240;2023-05-10T09:58:05;16.60;99.90
23259;DHT22;11798;51.528;7.240;2023-05-10T10:00:37;17.00;99.90
23259;DHT22;11798;51.528;7.240;2023-05-10T10:03:03;17.10;99.90
23259;DHT22;11798;51.528;7.240;2023-05-10T10:05:35;16.90;99.90
23259;DHT22;11798;51.528;7.240;2023-05-10T10:08:05;16.90;99.90
23259;DHT22;11798;51.528;7.240;2023-05-10T10:10:31;17.10;99.90
23259;DHT22;11798;51.528;7.240;2023-05-10T10:12:57;17.40;99.90
23259;DHT22;11798;51.528;7.240;2023-05-10T10:15:24;17.50;99.90
23259;DHT22;11798;51.528;7.240;2023-05-10T10:17:51;17.40;99.90
23259;DHT22;11798;51.528;7.240;2023-05-10T10:20:17;17.30;99.90
23259;DHT22;11798;51.528;7.240;2023-05-10T10:22:43;17.10;99.90
23259;DHT22;11798;51.528;7.240;2023-05-10T10:25:11;16.80;99.90
23259;DHT22;11798;51.528;7.240;2023-05-10T10:33:06;16.20;99.90
23259;DHT22;11798;51.528;7.240;2023-05-10T10:35:35;16.30;99.90
23259;DHT22;11798;51.528;7.240;2023-05-10T10:38:01;16.40;99.90
23259;DHT22;11798;51.528;7.240;2023-05-10T10:40:32;16.40;99.90
23259;DHT22;11798;51.528;7.240;2023-05-10T10:42:58;16.50;99.90
23259;DHT22;11798;51.528;7.240;2023-05-10T10:45:43;16.60;99.90
23259;DHT22;11798;51.528;7.240;2023-05-10T10:48:22;16.70;99.90
23259;DHT22;11798;51.528;7.240;2023-05-10T10:50:56;16.80;99.90
23259;DHT22;11798;51.528;7.240;2023-05-10T10:53:21;17.00;99.90
23259;DHT22;11798;51.528;7.240;2023-05-10T10:55:48;16.90;99.90
23259;DHT22;11798;51.528;7.240;2023-05-10T10:58:34;17.10;99.90
23259;DHT22;11798;51.528;7.240;2023-05-10T11:01:17;17.20;99.90
23259;DHT22;11798;51.528;7.240;2023-05-10T11:06:40;16.90;99.90
23259;DHT22;11798;51.528;7.240;2023-05-10T11:09:10;17.00;99.90
23259;DHT22;11798;51.528;7.240;2023-05-10T11:11:48;17.00;99.90
23259;DHT22;11798;51.528;7.240;2023-05-10T11:14:14;17.30;99.90
23259;DHT22;11798;51.528;7.240;2023-05-10T11:16:45;17.30;99.90
23259;DHT22;11798;51.528;7.240;2023-05-10T11:19:12;17.30;99.90
23259;DHT22;11798;51.528;7.240;2023-05-10T11:21:49;17.10;99.90
23259;DHT22;11798;51.528;7.240;2023-05-10T11:24:17;17.00;99.90
23259;DHT22;11798;51.528;7.240;2023-05-10T11:26:43;16.90;99.90
23259;DHT22;11798;51.528;7.240;2023-05-10T11:29:09;16.80;99.90
23259;DHT22;11798;51.528;7.240;2023-05-10T11:31:42;16.80;99.90
23259;DHT22;11798;51.528;7.240;2023-05-10T11:34:07;16.90;99.90
23259;DHT22;11798;51.528;7.240;2023-05-10T11:36:35;17.20;99.90
23259;DHT22;11798;51.528;7.240;2023-05-10T11:39:01;17.40;99.90
23259;DHT22;11798;51.528;7.240;2023-05-10T11:41:28;17.50;99.90
23259;DHT22;11798;51.528;7.240;2023-05-10T11:43:55;17.60;99.90
23259;DHT22;11798;51.528;7.240;2023-05-10T11:46:23;17.50;99.90
23259;DHT22;11798;51.528;7.240;2023-05-10T11:48:50;17.50;99.90
23259;DHT22;11798;51.528;7.240;2023-05-10T11:51:20;17.50;99.90
23259;DHT22;11798;51.528;7.240;2023-05-10T11:53:46;17.60;99.90
23259;DHT22;11798;51.528;7.240;2023-05-10T11:56:12;17.70;99.90
23259;DHT22;11798;51.528;7.240;2023-05-10T11:58:38;17.70;99.90
23259;DHT22;11798;51.528;7.240;2023-05-10T12:01:05;17.70;99.90
23259;DHT22;11798;51.528;7.240;2023-05-10T12:03:32;17.60;99.90
23259;DHT22;11798;51.528;7.240;2023-05-10T12:05:58;17.70;99.90
23259;DHT22;11798;51.528;7.240;2023-05-10T12:08:26;17.30;99.90
23259;DHT22;11798;51.528;7.240;2023-05-10T12:10:53;17.20;99.90
23259;DHT22;11798;51.528;7.240;2023-05-10T12:13:20;17.30;99.90
23259;DHT22;11798;51.528;7.240;2023-05-10T12:15:46;17.50;99.90
23259;DHT22;11798;51.528;7.240;2023-05-10T12:18:13;17.50;99.90
23259;DHT22;11798;51.528;7.240;2023-05-10T12:20:40;17.60;99.90
23259;DHT22;11798;51.528;7.240;2023-05-10T12:23:07;17.40;99.90
23259;DHT22;11798;51.528;7.240;2023-05-10T12:25:36;17.40;99.90
23259;DHT22;11798;51.528;7.240;2023-05-10T12:28:06;17.50;99.90
23259;DHT22;11798;51.528;7.240;2023-05-10T12:30:34;17.50;99.90
23259;DHT22;11798;51.528;7.240;2023-05-10T12:33:10;17.60;99.90
23259;DHT22;11798;51.528;7.240;2023-05-10T12:35:47;17.60;99.90
23259;DHT22;11798;51.528;7.240;2023-05-10T12:38:34;17.50;99.90
23259;DHT22;11798;51.528;7.240;2023-05-10T12:41:05;17.60;99.90
23259;DHT22;11798;51.528;7.240;2023-05-10T12:43:31;17.60;99.90
23259;DHT22;11798;51.528;7.240;2023-05-10T12:45:57;17.60;99.90
23259;DHT22;11798;51.528;7.240;2023-05-10T12:48:23;17.60;99.90
23259;DHT22;11798;51.528;7.240;2023-05-10T12:50:49;17.70;99.90
23259;DHT22;11798;51.528;7.240;2023-05-10T12:53:15;17.90;99.90
23259;DHT22;11798;51.528;7.240;2023-05-10T12:55:42;17.90;99.90
23259;DHT22;11798;51.528;7.240;2023-05-10T12:58:07;17.90;99.90
23259;DHT22;11798;51.528;7.240;2023-05-10T13:00:33;17.90;99.90
23259;DHT22;11798;51.528;7.240;2023-05-10T13:02:58;18.00;99.90
23259;DHT22;11798;51.528;7.240;2023-05-10T13:05:24;18.10;99.90
23259;DHT22;11798;51.528;7.240;2023-05-10T13:07:50;18.20;99.90
23259;DHT22;11798;51.528;7.240;2023-05-10T13:10:16;18.00;99.90
23259;DHT22;11798;51.528;7.240;2023-05-10T13:12:41;18.10;99.90
23259;DHT22;11798;51.528;7.240;2023-05-10T13:15:07;18.10;99.90
23259;DHT22;11798;51.528;7.240;2023-05-10T13:17:33;17.90;99.90
23259;DHT22;11798;51.528;7.240;2023-05-10T13:19:58;17.90;99.90
23259;DHT22;11798;51.528;7.240;2023-05-10T13:22:24;18.10;99.90
23259;DHT22;11798;51.528;7.240;2023-05-10T13:24:50;18.30;99.90
23259;DHT22;11798;51.528;7.240;2023-05-10T13:27:15;18.30;99.90
23259;DHT22;11798;51.528;7.240;2023-05-10T13:29:41;18.30;99.90
23259;DHT22;11798;51.528;7.240;2023-05-10T13:32:07;18.40;99.90
23259;DHT22;11798;51.528;7.240;2023-05-10T13:34:32;18.40;99.90
23259;DHT22;11798;51.528;7.240;2023-05-10T13:36:58;18.50;99.90
23259;DHT22;11798;51.528;7.240;2023-05-10T13:39:23;18.60;99.90
23259;DHT22;11798;51.528;7.240;2023-05-10T13:41:49;18.70;99.90
23259;DHT22;11798;51.528;7.240;2023-05-10T13:44:15;18.70;99.90
23259;DHT22;11798;51.528;7.240;2023-05-10T13:46:41;18.70;99.90
23259;DHT22;11798;51.528;7.240;2023-05-10T13:49:10;18.80;99.90
23259;DHT22;11798;51.528;7.240;2023-05-10T13:51:36;18.80;99.90
23259;DHT22;11798;51.528;7.240;2023-05-10T13:54:04;18.90;99.90
23259;DHT22;11798;51.528;7.240;2023-05-10T13:56:30;19.00;99.90
23259;DHT22;11798;51.528;7.240;2023-05-10T13:58:59;19.10;99.90
23259;DHT22;11798;51.528;7.240;2023-05-10T14:01:24;19.30;99.90
23259;DHT22;11798;51.528;7.240;2023-05-10T14:03:50;19.30;99.90
23259;DHT22;11798;51.528;7.240;2023-05-10T14:06:15;19.40;99.90
23259;DHT22;11798;51.528;7.240;2023-05-10T14:08:41;19.30;99.90
23259;DHT22;11798;51.528;7.240;2023-05-10T14:11:07;19.20;99.90
23259;DHT22;11798;51.528;7.240;2023-05-10T14:13:33;19.30;99.90
23259;DHT22;11798;51.528;7.240;2023-05-10T14:15:58;19.20;99.90
23259;DHT22;11798;51.528;7.240;2023-05-10T14:18:29;19.30;99.90
23259;DHT22;11798;51.528;7.240;2023-05-10T14:20:54;19.50;99.90
23259;DHT22;11798;51.528;7.240;2023-05-10T14:23:21;19.30;99.90
23259;DHT22;11798;51.528;7.240;2023-05-10T14:25:50;19.40;99.90
23259;DHT22;11798;51.528;7.240;2023-05-10T14:28:16;19.60;99.90
23259;DHT22;11798;51.528;7.240;2023-05-10T14:30:43;19.70;99.90
23259;DHT22;11798;51.528;7.240;2023-05-10T14:33:08;19.90;99.90
23259;DHT22;11798;51.528;7.240;2023-05-10T14:35:34;20.10;99.90
23259;DHT22;11798;51.528;7.240;2023-05-10T14:37:59;20.00;99.90
23259;DHT22;11798;51.528;7.240;2023-05-10T14:40:25;19.90;99.90
23259;DHT22;11798;51.528;7.240;2023-05-10T14:42:51;20.10;99.90
23259;DHT22;11798;51.528;7.240;2023-05-10T14:45:18;19.80;99.90
23259;DHT22;11798;51.528;7.240;2023-05-10T14:47:43;19.60;99.90
23259;DHT22;11798;51.528;7.240;2023-05-10T14:50:09;19.40;99.90
23259;DHT22;11798;51.528;7.240;2023-05-10T14:52:35;19.30;99.90
23259;DHT22;11798;51.528;7.240;2023-05-10T14:55:01;19.50;99.90
23259;DHT22;11798;51.528;7.240;2023-05-10T14:57:27;19.50;99.90
23259;DHT22;11798;51.528;7.240;2023-05-10T14:59:55;19.40;99.90
23259;DHT22;11798;51.528;7.240;2023-05-10T15:02:21;19.50;99.90
23259;DHT22;11798;51.528;7.240;2023-05-10T15:04:47;19.60;99.90
23259;DHT22;11798;51.528;7.240;2023-05-10T15:07:12;19.50;99.90
23259;DHT22;11798;51.528;7.240;2023-05-10T15:09:40;19.50;99.90
23259;DHT22;11798;51.528;7.240;2023-05-10T15:12:06;19.60;99.90
23259;DHT22;11798;51.528;7.240;2023-05-10T15:14:32;19.70;99.90
23259;DHT22;11798;51.528;7.240;2023-05-10T15:16:58;19.70;99.90
23259;DHT22;11798;51.528;7.240;2023-05-10T15:19:24;19.80;99.90
23259;DHT22;11798;51.528;7.240;2023-05-10T15:21:50;20.20;99.90
23259;DHT22;11798;51.528;7.240;2023-05-10T15:24:16;20.20;99.90
23259;DHT22;11798;51.528;7.240;2023-05-10T15:26:41;20.30;99.90
23259;DHT22;11798;51.528;7.240;2023-05-10T15:29:07;20.20;99.90
23259;DHT22;11798;51.528;7.240;2023-05-10T15:31:33;20.60;99.90
23259;DHT22;11798;51.528;7.240;2023-05-10T15:34:01;20.90;99.90
23259;DHT22;11798;51.528;7.240;2023-05-10T15:36:26;20.70;99.90
23259;DHT22;11798;51.528;7.240;2023-05-10T15:38:53;21.00;99.90
23259;DHT22;11798;51.528;7.240;2023-05-10T15:41:19;21.20;99.90
23259;DHT22;11798;51.528;7.240;2023-05-10T15:43:46;21.60;99.90
23259;DHT22;11798;51.528;7.240;2023-05-10T15:46:11;21.80;99.90
23259;DHT22;11798;51.528;7.240;2023-05-10T15:48:37;21.80;99.90
23259;DHT22;11798;51.528;7.240;2023-05-10T15:51:04;21.90;99.90
23259;DHT22;11798;51.528;7.240;2023-05-10T15:53:30;22.20;99.90
23259;DHT22;11798;51.528;7.240;2023-05-10T15:55:55;22.30;99.90